createdAt,value
2022-12-23T00:00:44.956Z,1.6
2022-12-23T00:01:52.282Z,1.6
2022-12-23T00:02:59.421Z,1.6
2022-12-23T00:04:06.465Z,1.5
2022-12-23T00:05:13.475Z,1.5
2022-12-23T00:06:20.546Z,1.4
2022-12-23T00:07:27.100Z,1.4
2022-12-23T00:08:34.301Z,1.4
2022-12-23T00:09:41.376Z,1.4
2022-12-23T00:10:48.413Z,1.4
2022-12-23T00:11:55.551Z,1.4
2022-12-23T00:13:02.167Z,1.4
2022-12-23T00:14:12.129Z,1.4
2022-12-23T00:15:16.346Z,1.4
2022-12-23T00:16:23.513Z,1.4
2022-12-23T00:17:30.574Z,1.4
2022-12-23T00:18:37.411Z,1.4
2022-12-23T00:19:44.323Z,1.4
2022-12-23T00:20:51.392Z,1.4
2022-12-23T00:21:58.398Z,1.4
2022-12-23T00:23:05.014Z,1.4
2022-12-23T00:24:12.200Z,1.4
2022-12-23T00:25:19.273Z,1.4
2022-12-23T00:26:26.330Z,1.4
2022-12-23T00:27:37.546Z,1.4
2022-12-23T00:28:39.979Z,1.4
2022-12-23T00:29:47.113Z,1.4
2022-12-23T00:30:54.297Z,1.4
2022-12-23T00:32:01.396Z,1.4
2022-12-23T00:33:08.464Z,1.3
2022-12-23T00:34:15.098Z,1.3
2022-12-23T00:35:22.156Z,1.3
2022-12-23T00:36:29.914Z,1.3
2022-12-23T00:37:36.363Z,1.3
2022-12-23T00:38:43.445Z,1.2
2022-12-23T00:39:54.784Z,1.2
2022-12-23T00:40:57.161Z,1.2
2022-12-23T00:42:04.390Z,1.1
2022-12-23T00:43:11.381Z,1.1
2022-12-23T00:44:18.472Z,1.1
2022-12-23T00:45:25.136Z,1.1
2022-12-23T00:46:32.211Z,1
2022-12-23T00:47:39.291Z,1
2022-12-23T00:48:45.902Z,1
2022-12-23T00:49:53.543Z,1
2022-12-23T00:51:00.029Z,1
2022-12-23T00:52:07.226Z,1
2022-12-23T00:53:14.265Z,1
2022-12-23T00:54:21.366Z,1
2022-12-23T00:55:28.450Z,0.9
2022-12-23T00:56:35.105Z,0.9
2022-12-23T00:57:42.195Z,0.9
2022-12-23T00:58:49.282Z,0.9
2022-12-23T00:59:56.434Z,0.9
2022-12-23T01:01:03.511Z,0.8
2022-12-23T01:02:10.233Z,0.8
2022-12-23T01:03:17.316Z,0.8
2022-12-23T01:04:24.315Z,0.8
2022-12-23T01:05:31.491Z,0.8
2022-12-23T01:06:38.554Z,0.8
2022-12-23T01:07:45.071Z,0.8
2022-12-23T01:08:52.212Z,0.8
2022-12-23T01:09:59.270Z,0.7
2022-12-23T01:11:06.408Z,0.7
2022-12-23T01:12:13.543Z,0.7
2022-12-23T01:13:20.095Z,0.6
2022-12-23T01:14:27.225Z,0.6
2022-12-23T01:15:34.338Z,0.6
2022-12-23T01:16:41.480Z,0.6
2022-12-23T01:17:48.615Z,0.6
2022-12-23T01:20:02.223Z,0.6
2022-12-23T01:21:09.621Z,0.6
2022-12-23T01:22:16.457Z,0.6
2022-12-23T01:23:23.508Z,0.6
2022-12-23T01:24:30.131Z,0.6
2022-12-23T01:25:37.223Z,0.5
2022-12-23T01:26:44.393Z,0.5
2022-12-23T01:28:58.584Z,0.5
2022-12-23T01:30:05.136Z,0.5
2022-12-23T01:31:12.241Z,0.5
2022-12-23T01:32:19.458Z,0.5
2022-12-23T01:33:26.457Z,0.5
2022-12-23T01:34:37.190Z,0.5
2022-12-23T01:35:40.103Z,0.5
2022-12-23T01:36:47.264Z,0.5
2022-12-23T01:37:54.342Z,0.5
2022-12-23T01:39:01.445Z,0.5
2022-12-23T01:40:08.544Z,0.5
2022-12-23T01:41:15.125Z,0.5
2022-12-23T01:42:22.255Z,0.5
2022-12-23T01:43:29.339Z,0.6
2022-12-23T01:44:37.497Z,0.6
2022-12-23T01:45:43.678Z,0.6
2022-12-23T01:46:50.174Z,0.6
2022-12-23T01:47:57.260Z,0.6
2022-12-23T01:49:04.393Z,0.6
2022-12-23T01:50:11.512Z,0.6
2022-12-23T01:51:18.587Z,0.6
2022-12-23T01:52:25.215Z,0.6
2022-12-23T01:53:32.263Z,0.6
2022-12-23T01:54:39.315Z,0.6
2022-12-23T01:55:46.491Z,0.7
2022-12-23T01:56:53.643Z,0.7
2022-12-23T01:58:00.157Z,0.7
2022-12-23T01:59:07.208Z,0.7
2022-12-23T02:00:14.399Z,0.7
2022-12-23T02:01:21.564Z,0.7
2022-12-23T02:02:28.692Z,0.7
2022-12-23T02:03:35.230Z,0.8
2022-12-23T02:04:42.843Z,0.8
2022-12-23T02:05:49.418Z,0.8
2022-12-23T02:06:56.585Z,0.8
2022-12-23T02:08:03.601Z,0.8
2022-12-23T02:09:10.172Z,0.8
2022-12-23T02:10:17.226Z,0.8
2022-12-23T02:11:23.897Z,0.8
2022-12-23T02:12:31.520Z,0.9
2022-12-23T02:13:38.062Z,0.9
2022-12-23T02:14:45.196Z,1
2022-12-23T02:15:52.298Z,1
2022-12-23T02:16:59.662Z,1
2022-12-23T02:18:06.451Z,1
2022-12-23T02:19:13.143Z,1
2022-12-23T02:20:20.184Z,1
2022-12-23T02:21:27.261Z,1
2022-12-23T02:23:41.554Z,1.1
2022-12-23T02:24:48.075Z,1.2
2022-12-23T02:25:55.222Z,1.2
2022-12-23T02:27:02.388Z,1.2
2022-12-23T02:28:09.475Z,1.2
2022-12-23T02:29:16.529Z,1.2
2022-12-23T02:30:23.123Z,1.2
2022-12-23T02:31:30.307Z,1.3
2022-12-23T02:32:37.314Z,1.3
2022-12-23T02:33:44.436Z,1.3
2022-12-23T02:34:51.530Z,1.4
2022-12-23T02:35:58.637Z,1.4
2022-12-23T02:37:05.301Z,1.4
2022-12-23T02:38:12.315Z,1.4
2022-12-23T02:39:19.432Z,1.4
2022-12-23T02:40:26.556Z,1.4
2022-12-23T02:41:33.148Z,1.4
2022-12-23T02:42:40.237Z,1.5
2022-12-23T02:43:47.299Z,1.5
2022-12-23T02:44:54.406Z,1.6
2022-12-23T02:46:01.624Z,1.6
2022-12-23T02:47:08.125Z,1.6
2022-12-23T02:48:15.203Z,1.6
2022-12-23T02:49:22.368Z,1.6
2022-12-23T02:50:29.434Z,1.6
2022-12-23T02:51:36.636Z,1.6
2022-12-23T02:52:43.162Z,1.6
2022-12-23T02:53:50.223Z,1.6
2022-12-23T02:54:57.348Z,1.6
2022-12-23T02:57:11.592Z,1.7
2022-12-23T02:58:18.144Z,1.7
2022-12-23T02:59:25.219Z,1.7
2022-12-23T03:00:32.372Z,1.8
2022-12-23T03:01:39.658Z,1.8
2022-12-23T03:02:46.752Z,1.8
2022-12-23T03:03:53.204Z,1.8
2022-12-23T03:05:01.279Z,1.8
2022-12-23T03:06:07.334Z,1.8
2022-12-23T03:07:18.480Z,1.8
2022-12-23T03:08:21.582Z,1.8
2022-12-23T03:09:28.131Z,1.9
2022-12-23T03:10:35.261Z,1.9
2022-12-23T03:11:42.416Z,2
2022-12-23T03:12:49.474Z,2
2022-12-23T03:13:56.573Z,2
2022-12-23T03:15:03.145Z,2
2022-12-23T03:16:10.304Z,2
2022-12-23T03:17:17.315Z,2
2022-12-23T03:18:24.491Z,2
2022-12-23T03:19:31.604Z,2
2022-12-23T03:20:38.185Z,2
2022-12-23T03:21:45.342Z,2
2022-12-23T03:22:52.390Z,2
2022-12-23T03:23:59.498Z,2
2022-12-23T03:25:06.591Z,2
2022-12-23T03:27:20.353Z,2.1
2022-12-23T03:28:27.383Z,2.1
2022-12-23T03:29:34.470Z,2.1
2022-12-23T03:30:41.644Z,2.1
2022-12-23T03:31:48.239Z,2.1
2022-12-23T03:32:55.852Z,2.1
2022-12-23T03:35:09.448Z,2.1
2022-12-23T03:36:16.589Z,2.1
2022-12-23T03:37:23.289Z,2.1
2022-12-23T03:38:30.316Z,2.1
2022-12-23T03:39:37.346Z,2.1
2022-12-23T03:40:44.534Z,2.1
2022-12-23T03:41:51.610Z,2.1
2022-12-23T03:42:58.147Z,2.1
2022-12-23T03:44:05.350Z,2.1
2022-12-23T03:45:37.570Z,2.1
2022-12-23T03:46:19.545Z,2.1
2022-12-23T03:47:26.667Z,2.1
2022-12-23T03:48:33.289Z,2.1
2022-12-23T03:49:40.337Z,2.1
2022-12-23T03:50:47.406Z,2.1
2022-12-23T03:51:54.553Z,2.1
2022-12-23T03:53:01.602Z,2.1
2022-12-23T03:54:08.161Z,2.2
2022-12-23T03:55:15.353Z,2.2
2022-12-23T03:56:22.442Z,2.2
2022-12-23T03:57:29.590Z,2.2
2022-12-23T03:58:36.583Z,2.2
2022-12-23T03:59:43.211Z,2.2
2022-12-23T04:00:50.329Z,2.2
2022-12-23T04:01:57.661Z,2.2
2022-12-23T04:03:04.570Z,2.2
2022-12-23T04:04:11.720Z,2.2
2022-12-23T04:05:18.218Z,2.2
2022-12-23T04:06:25.388Z,2.2
2022-12-23T04:07:32.601Z,2.3
2022-12-23T04:08:39.530Z,2.3
2022-12-23T04:09:46.630Z,2.3
2022-12-23T04:10:53.272Z,2.3
2022-12-23T04:12:00.346Z,2.3
2022-12-23T04:13:07.452Z,2.3
2022-12-23T04:14:14.574Z,2.3
2022-12-23T04:16:28.260Z,2.4
2022-12-23T04:17:35.404Z,2.4
2022-12-23T04:18:42.441Z,2.4
2022-12-23T04:19:49.564Z,2.3
2022-12-23T04:20:56.124Z,2.4
2022-12-23T04:22:03.337Z,2.4
2022-12-23T04:23:10.382Z,2.4
2022-12-23T04:25:24.581Z,2.4
2022-12-23T04:26:31.191Z,2.4
2022-12-23T04:27:38.290Z,2.4
2022-12-23T04:28:45.358Z,2.4
2022-12-23T04:30:59.581Z,2.4
2022-12-23T04:32:06.686Z,2.5
2022-12-23T04:33:13.268Z,2.4
2022-12-23T04:34:20.349Z,2.5
2022-12-23T04:35:27.474Z,2.5
2022-12-23T04:36:34.569Z,2.5
2022-12-23T04:37:41.332Z,2.5
2022-12-23T04:38:48.257Z,2.6
2022-12-23T04:39:55.407Z,2.6
2022-12-23T04:41:02.533Z,2.6
2022-12-23T04:42:09.643Z,2.6
2022-12-23T04:43:16.208Z,2.6
2022-12-23T04:44:23.259Z,2.6
2022-12-23T04:45:30.417Z,2.6
2022-12-23T04:46:37.500Z,2.6
2022-12-23T04:47:44.682Z,2.6
2022-12-23T04:48:51.192Z,2.6
2022-12-23T04:49:58.239Z,2.6
2022-12-23T04:51:05.411Z,2.6
2022-12-23T04:52:12.735Z,2.6
2022-12-23T04:53:19.604Z,2.6
2022-12-23T04:54:26.713Z,2.6
2022-12-23T04:55:33.291Z,2.6
2022-12-23T04:56:40.428Z,2.6
2022-12-23T04:57:47.488Z,2.6
2022-12-23T04:58:54.590Z,2.7
2022-12-23T05:00:01.229Z,2.7
2022-12-23T05:01:08.880Z,2.6
2022-12-23T05:02:15.594Z,2.6
2022-12-23T05:03:22.634Z,2.6
2022-12-23T05:04:29.652Z,2.6
2022-12-23T05:05:36.232Z,2.6
2022-12-23T05:06:43.362Z,2.6
2022-12-23T05:07:50.455Z,2.6
2022-12-23T05:08:57.515Z,2.6
2022-12-23T05:10:04.658Z,2.6
2022-12-23T05:11:11.228Z,2.6
2022-12-23T05:12:18.407Z,2.6
2022-12-23T05:13:25.458Z,2.6
2022-12-23T05:14:32.550Z,2.6
2022-12-23T05:15:39.653Z,2.6
2022-12-23T05:16:46.880Z,2.6
2022-12-23T05:17:53.360Z,2.6
2022-12-23T05:19:00.444Z,2.6
2022-12-23T05:20:07.484Z,2.6
2022-12-23T05:21:14.617Z,2.6
2022-12-23T05:22:21.317Z,2.6
2022-12-23T05:23:28.351Z,2.6
2022-12-23T05:24:37.557Z,2.6
2022-12-23T05:25:42.543Z,2.6
2022-12-23T05:26:52.917Z,2.6
2022-12-23T05:27:56.268Z,2.6
2022-12-23T05:29:03.383Z,2.6
2022-12-23T05:30:10.438Z,2.6
2022-12-23T05:31:17.635Z,2.6
2022-12-23T05:32:24.715Z,2.6
2022-12-23T05:34:38.298Z,2.6
2022-12-23T05:35:45.527Z,2.6
2022-12-23T05:36:52.644Z,2.7
2022-12-23T05:37:59.133Z,2.6
2022-12-23T05:39:06.208Z,2.6
2022-12-23T05:40:15.088Z,2.6
2022-12-23T05:41:20.502Z,2.7
2022-12-23T05:42:27.617Z,2.7
2022-12-23T05:43:34.637Z,2.7
2022-12-23T05:44:41.286Z,2.6
2022-12-23T05:45:48.437Z,2.6
2022-12-23T05:46:55.619Z,2.6
2022-12-23T05:48:02.601Z,2.7
2022-12-23T05:49:09.707Z,2.7
2022-12-23T05:50:16.277Z,2.7
2022-12-23T05:51:23.397Z,2.7
2022-12-23T05:53:37.686Z,2.7
2022-12-23T05:54:44.650Z,2.7
2022-12-23T05:55:51.295Z,2.7
2022-12-23T05:56:58.451Z,2.7
2022-12-23T05:58:05.483Z,2.7
2022-12-23T05:59:12.578Z,2.7
2022-12-23T06:00:19.682Z,2.7
2022-12-23T06:01:26.342Z,2.7
2022-12-23T06:02:33.700Z,2.7
2022-12-23T06:03:40.714Z,2.7
2022-12-23T06:04:47.701Z,2.7
2022-12-23T06:05:54.721Z,2.7
2022-12-23T06:07:01.364Z,2.7
2022-12-23T06:08:08.346Z,2.7
2022-12-23T06:09:15.520Z,2.8
2022-12-23T06:10:22.975Z,2.8
2022-12-23T06:11:29.140Z,2.8
2022-12-23T06:12:36.344Z,2.8
2022-12-23T06:13:43.394Z,2.7
2022-12-23T06:14:50.524Z,2.8
2022-12-23T06:15:57.693Z,2.7
2022-12-23T06:17:04.294Z,2.7
2022-12-23T06:18:11.335Z,2.8
2022-12-23T06:20:25.500Z,2.7
2022-12-23T06:21:32.650Z,2.7
2022-12-23T06:22:39.253Z,2.7
2022-12-23T06:23:46.298Z,2.7
2022-12-23T06:24:53.422Z,2.7
2022-12-23T06:26:00.529Z,2.7
2022-12-23T06:27:07.735Z,2.7
2022-12-23T06:28:14.777Z,2.7
2022-12-23T06:29:21.840Z,2.7
2022-12-23T06:30:28.436Z,2.7
2022-12-23T06:31:35.595Z,2.7
2022-12-23T06:32:42.709Z,2.7
2022-12-23T06:33:49.236Z,2.7
2022-12-23T06:34:56.374Z,2.7
2022-12-23T06:36:03.468Z,2.7
2022-12-23T06:38:17.644Z,2.7
2022-12-23T06:39:24.239Z,2.7
2022-12-23T06:40:31.327Z,2.7
2022-12-23T06:41:38.453Z,2.7
2022-12-23T06:42:45.632Z,2.7
2022-12-23T06:43:54.447Z,2.7
2022-12-23T06:44:59.222Z,2.6
2022-12-23T06:46:06.430Z,2.7
2022-12-23T06:47:13.483Z,2.7
2022-12-23T06:48:20.524Z,2.6
2022-12-23T06:49:27.660Z,2.7
2022-12-23T06:50:34.780Z,2.6
2022-12-23T06:51:41.362Z,2.6
2022-12-23T06:52:48.486Z,2.6
2022-12-23T06:53:55.548Z,2.6
2022-12-23T06:55:02.707Z,2.7
2022-12-23T06:56:09.250Z,2.7
2022-12-23T06:57:16.435Z,2.7
2022-12-23T06:58:23.439Z,2.7
2022-12-23T06:59:30.571Z,2.7
2022-12-23T07:01:44.450Z,2.7
2022-12-23T07:02:51.639Z,2.7
2022-12-23T07:03:58.434Z,2.7
2022-12-23T07:05:05.569Z,2.7
2022-12-23T07:06:12.654Z,2.7
2022-12-23T07:07:19.302Z,2.7
2022-12-23T07:08:26.349Z,2.7
2022-12-23T07:09:33.452Z,2.7
2022-12-23T07:10:40.581Z,2.7
2022-12-23T07:11:47.766Z,2.7
2022-12-23T07:12:54.314Z,2.7
2022-12-23T07:14:01.359Z,2.7
2022-12-23T07:15:08.491Z,2.7
2022-12-23T07:16:15.630Z,2.7
2022-12-23T07:17:22.707Z,2.7
2022-12-23T07:18:29.285Z,2.7
2022-12-23T07:19:36.367Z,2.6
2022-12-23T07:21:50.674Z,2.6
2022-12-23T07:22:57.691Z,2.6
2022-12-23T07:24:04.320Z,2.6
2022-12-23T07:25:11.374Z,2.6
2022-12-23T07:26:18.614Z,2.6
2022-12-23T07:27:25.643Z,2.6
2022-12-23T07:28:32.725Z,2.6
2022-12-23T07:29:39.271Z,2.5
2022-12-23T07:30:46.408Z,2.5
2022-12-23T07:31:53.633Z,2.5
2022-12-23T07:33:00.600Z,2.5
2022-12-23T07:34:07.741Z,2.5
2022-12-23T07:35:14.354Z,2.4
2022-12-23T07:36:21.436Z,2.5
2022-12-23T07:37:28.643Z,2.5
2022-12-23T07:38:35.598Z,2.5
2022-12-23T07:39:42.715Z,2.4
2022-12-23T07:42:16.529Z,2.4
2022-12-23T07:43:03.530Z,2.4
2022-12-23T07:44:10.633Z,2.4
2022-12-23T07:45:17.211Z,2.4
2022-12-23T07:46:24.513Z,2.4
2022-12-23T07:47:31.447Z,2.3
2022-12-23T07:48:38.587Z,2.3
2022-12-23T07:49:45.639Z,2.3
2022-12-23T07:50:52.730Z,2.3
2022-12-23T07:51:59.376Z,2.3
2022-12-23T07:53:06.457Z,2.3
2022-12-23T07:54:13.516Z,2.3
2022-12-23T07:55:20.636Z,2.3
2022-12-23T07:56:27.721Z,2.3
2022-12-23T07:57:34.849Z,2.3
2022-12-23T07:58:41.463Z,2.3
2022-12-23T07:59:48.535Z,2.2
2022-12-23T08:00:55.659Z,2.2
2022-12-23T08:02:03.093Z,2.3
2022-12-23T08:03:09.461Z,2.3
2022-12-23T08:04:16.529Z,2.3
2022-12-23T08:05:23.649Z,2.3
2022-12-23T08:06:30.707Z,2.2
2022-12-23T08:07:37.317Z,2.2
2022-12-23T08:08:44.379Z,2.2
2022-12-23T08:09:51.490Z,2.2
2022-12-23T08:10:58.506Z,2.2
2022-12-23T08:12:05.641Z,2.1
2022-12-23T08:13:12.275Z,2.1
2022-12-23T08:14:19.345Z,2.1
2022-12-23T08:15:26.461Z,2.1
2022-12-23T08:16:39.587Z,2.1
2022-12-23T08:17:40.699Z,2.1
2022-12-23T08:18:47.245Z,2
2022-12-23T08:19:54.430Z,2.1
2022-12-23T08:21:01.463Z,2
2022-12-23T08:22:08.584Z,2
2022-12-23T08:23:18.759Z,2
2022-12-23T08:24:22.758Z,1.9
2022-12-23T08:25:29.326Z,1.9
2022-12-23T08:26:36.550Z,1.9
2022-12-23T08:27:43.674Z,1.9
2022-12-23T08:28:50.721Z,1.9
2022-12-23T08:29:57.269Z,1.9
2022-12-23T08:31:04.534Z,1.8
2022-12-23T08:32:11.551Z,1.8
2022-12-23T08:33:18.660Z,1.8
2022-12-23T08:34:25.735Z,1.8
2022-12-23T08:35:32.257Z,1.7
2022-12-23T08:36:39.421Z,1.7
2022-12-23T08:37:46.582Z,1.7
2022-12-23T08:38:53.651Z,1.7
2022-12-23T08:40:00.652Z,1.7
2022-12-23T08:41:07.305Z,1.7
2022-12-23T08:42:14.460Z,1.7
2022-12-23T08:43:21.491Z,1.6
2022-12-23T08:45:35.725Z,1.6
2022-12-23T08:46:42.347Z,1.6
2022-12-23T08:47:49.538Z,1.6
2022-12-23T08:50:03.638Z,1.5
2022-12-23T08:51:10.739Z,1.5
2022-12-23T08:52:17.314Z,1.5
2022-12-23T08:53:24.416Z,1.5
2022-12-23T08:54:31.498Z,1.5
2022-12-23T08:55:38.587Z,1.5
2022-12-23T08:56:45.744Z,1.4
2022-12-23T08:57:52.298Z,1.4
2022-12-23T08:58:59.533Z,1.4
2022-12-23T09:00:06.548Z,1.4
2022-12-23T09:01:13.680Z,1.4
2022-12-23T09:02:20.983Z,1.4
2022-12-23T09:03:27.511Z,1.4
2022-12-23T09:04:33.924Z,1.4
2022-12-23T09:04:37.518Z,1.4
2022-12-23T09:05:41.573Z,1.4
2022-12-23T09:06:48.588Z,1.4
2022-12-23T09:07:55.827Z,1.5
2022-12-23T09:09:02.353Z,1.5
2022-12-23T09:10:09.409Z,1.4
2022-12-23T09:11:16.552Z,1.5
2022-12-23T09:12:23.635Z,1.5
2022-12-23T09:13:35.285Z,1.5
2022-12-23T09:14:37.640Z,1.5
2022-12-23T09:15:44.580Z,1.5
2022-12-23T09:16:51.535Z,1.5
2022-12-23T09:17:58.715Z,1.5
2022-12-23T09:19:05.782Z,1.5
2022-12-23T09:20:12.382Z,1.5
2022-12-23T09:21:19.433Z,1.5
2022-12-23T09:22:26.619Z,1.4
2022-12-23T09:23:33.794Z,1.4
2022-12-23T09:24:40.754Z,1.4
2022-12-23T09:25:47.873Z,1.4
2022-12-23T09:26:54.464Z,1.4
2022-12-23T09:28:01.558Z,1.4
2022-12-23T09:29:08.633Z,1.4
2022-12-23T09:30:15.752Z,1.4
2022-12-23T09:31:22.424Z,1.4
2022-12-23T09:32:29.473Z,1.4
2022-12-23T09:33:36.594Z,1.4
2022-12-23T09:34:43.718Z,1.4
2022-12-23T09:35:50.793Z,1.4
2022-12-23T09:36:57.363Z,1.4
2022-12-23T09:38:04.485Z,1.4
2022-12-23T09:39:11.613Z,1.3
2022-12-23T09:40:18.641Z,1.3
2022-12-23T09:41:25.815Z,1.3
2022-12-23T09:42:32.413Z,1.3
2022-12-23T09:43:39.441Z,1.3
2022-12-23T09:44:46.619Z,1.3
2022-12-23T09:45:53.215Z,1.4
2022-12-23T09:47:00.955Z,1.3
2022-12-23T09:49:14.528Z,1.3
2022-12-23T09:50:21.575Z,1.3
2022-12-23T09:51:28.655Z,1.3
2022-12-23T09:52:35.339Z,1.2
2022-12-23T09:53:42.411Z,1.3
2022-12-23T09:54:49.479Z,1.2
2022-12-23T09:55:56.595Z,1.3
2022-12-23T09:57:03.770Z,1.3
2022-12-23T09:58:10.820Z,1.3
2022-12-23T09:59:17.403Z,1.3
2022-12-23T10:00:24.529Z,1.4
2022-12-23T10:01:31.787Z,1.5
2022-12-23T10:02:39.003Z,1.4
2022-12-23T10:03:45.579Z,1.5
2022-12-23T10:04:52.423Z,1.5
2022-12-23T10:05:59.503Z,1.6
2022-12-23T10:07:06.643Z,1.6
2022-12-23T10:08:13.756Z,1.6
2022-12-23T10:09:20.324Z,1.7
2022-12-23T10:10:27.436Z,1.7
2022-12-23T10:11:34.542Z,1.7
2022-12-23T10:12:41.736Z,1.7
2022-12-23T10:13:48.716Z,1.6
2022-12-23T10:14:55.333Z,1.7
2022-12-23T10:16:02.473Z,1.7
2022-12-23T10:18:16.646Z,1.7
2022-12-23T10:19:23.760Z,1.6
2022-12-23T10:20:31.022Z,1.7
2022-12-23T10:21:40.067Z,1.6
2022-12-23T10:22:44.600Z,1.7
2022-12-23T10:23:51.592Z,1.6
2022-12-23T10:24:58.700Z,1.7
2022-12-23T10:26:05.321Z,1.7
2022-12-23T10:27:12.539Z,1.7
2022-12-23T10:28:19.506Z,1.8
2022-12-23T10:29:26.627Z,1.8
2022-12-23T10:30:57.441Z,1.8
2022-12-23T10:31:41.362Z,1.8
2022-12-23T10:32:47.491Z,1.8
2022-12-23T10:33:54.532Z,1.8
2022-12-23T10:35:01.669Z,1.8
2022-12-23T10:36:08.807Z,1.8
2022-12-23T10:37:15.423Z,1.8
2022-12-23T10:38:22.483Z,1.7
2022-12-23T10:39:29.517Z,1.7
2022-12-23T10:40:36.615Z,1.7
2022-12-23T10:41:43.797Z,1.7
2022-12-23T10:42:50.372Z,1.7
2022-12-23T10:43:57.455Z,1.7
2022-12-23T10:45:04.550Z,1.7
2022-12-23T10:46:11.687Z,1.7
2022-12-23T10:47:18.787Z,1.7
2022-12-23T10:48:25.350Z,1.7
2022-12-23T10:49:32.483Z,1.7
2022-12-23T10:50:39.589Z,1.7
2022-12-23T10:52:53.850Z,1.7
2022-12-23T10:54:00.897Z,1.6
2022-12-23T10:55:07.451Z,1.6
2022-12-23T10:56:14.561Z,1.7
2022-12-23T10:57:21.729Z,1.7
2022-12-23T10:58:28.795Z,1.7
2022-12-23T10:59:35.400Z,1.7
2022-12-23T11:00:42.531Z,1.7
2022-12-23T11:01:49.799Z,1.7
2022-12-23T11:02:56.819Z,1.7
2022-12-23T11:04:03.809Z,1.7
2022-12-23T11:05:10.397Z,1.7
2022-12-23T11:06:17.443Z,1.8
2022-12-23T11:07:45.221Z,1.7
2022-12-23T11:08:31.802Z,1.8
2022-12-23T11:09:38.822Z,1.8
2022-12-23T11:10:45.438Z,1.8
2022-12-23T11:11:52.462Z,1.8
2022-12-23T11:12:59.660Z,1.7
2022-12-23T11:14:06.667Z,1.7
2022-12-23T11:15:13.846Z,1.7
2022-12-23T11:16:20.420Z,1.7
2022-12-23T11:17:27.555Z,1.7
2022-12-23T11:18:40.312Z,1.7
2022-12-23T11:19:41.795Z,1.7
2022-12-23T11:20:48.837Z,1.7
2022-12-23T11:21:55.430Z,1.7
2022-12-23T11:23:02.615Z,1.7
2022-12-23T11:24:09.609Z,1.7
2022-12-23T11:25:16.681Z,1.8
2022-12-23T11:26:23.933Z,1.8
2022-12-23T11:27:30.445Z,1.8
2022-12-23T11:28:37.480Z,1.8
2022-12-23T11:29:44.704Z,1.9
2022-12-23T11:30:55.961Z,1.8
2022-12-23T11:31:58.929Z,1.9
2022-12-23T11:33:05.538Z,1.9
2022-12-23T11:34:12.575Z,1.9
2022-12-23T11:35:19.633Z,1.9
2022-12-23T11:36:26.756Z,1.8
2022-12-23T11:37:33.900Z,1.9
2022-12-23T11:38:40.457Z,1.9
2022-12-23T11:39:47.484Z,1.8
2022-12-23T11:40:54.690Z,1.8
2022-12-23T11:42:01.764Z,1.9
2022-12-23T11:43:08.922Z,1.9
2022-12-23T11:44:15.486Z,1.8
2022-12-23T11:45:22.514Z,1.9
2022-12-23T11:46:29.714Z,1.9
2022-12-23T11:47:36.773Z,2
2022-12-23T11:48:43.872Z,2
2022-12-23T11:49:50.461Z,2
2022-12-23T11:50:57.543Z,2
2022-12-23T11:52:04.671Z,2
2022-12-23T11:53:11.860Z,2.1
2022-12-23T11:54:18.820Z,2.2
2022-12-23T11:56:32.566Z,2.3
2022-12-23T11:57:39.705Z,2.3
2022-12-23T11:58:46.767Z,2.4
2022-12-23T11:59:53.363Z,2.5
2022-12-23T12:01:00.417Z,2.5
2022-12-23T12:02:07.658Z,2.5
2022-12-23T12:03:15.082Z,2.6
2022-12-23T12:04:21.830Z,2.7
2022-12-23T12:05:28.840Z,2.7
2022-12-23T12:06:35.503Z,2.7
2022-12-23T12:07:42.757Z,2.8
2022-12-23T12:08:49.652Z,2.9
2022-12-23T12:09:56.775Z,2.9
2022-12-23T12:11:03.375Z,2.9
2022-12-23T12:12:10.559Z,3
2022-12-23T12:13:17.525Z,3.1
2022-12-23T12:14:25.218Z,3.1
2022-12-23T12:15:31.779Z,3.1
2022-12-23T12:16:38.982Z,3.1
2022-12-23T12:17:45.522Z,3.1
2022-12-23T12:18:55.697Z,3.2
2022-12-23T12:19:59.657Z,3.3
2022-12-23T12:21:06.749Z,3.3
2022-12-23T12:23:20.532Z,3.3
2022-12-23T12:24:27.573Z,3.3
2022-12-23T12:25:38.122Z,3.3
2022-12-23T12:26:41.818Z,3.3
2022-12-23T12:27:48.409Z,3.4
2022-12-23T12:28:55.503Z,3.4
2022-12-23T12:30:08.120Z,3.4
2022-12-23T12:31:09.697Z,3.4
2022-12-23T12:32:16.801Z,3.4
2022-12-23T12:33:23.383Z,3.5
2022-12-23T12:34:30.547Z,3.5
2022-12-23T12:35:37.615Z,3.5
2022-12-23T12:36:44.744Z,3.5
2022-12-23T12:37:51.902Z,3.5
2022-12-23T12:38:58.379Z,3.5
2022-12-23T12:40:05.509Z,3.5
2022-12-23T12:41:12.597Z,3.5
2022-12-23T12:42:19.729Z,3.4
2022-12-23T12:43:26.835Z,3.5
2022-12-23T12:44:33.371Z,3.4
2022-12-23T12:45:40.563Z,3.4
2022-12-23T12:46:47.606Z,3.4
2022-12-23T12:47:57.032Z,3.4
2022-12-23T12:49:01.822Z,3.4
2022-12-23T12:50:08.411Z,3.4
2022-12-23T12:51:15.567Z,3.4
2022-12-23T12:52:22.708Z,3.4
2022-12-23T12:53:29.721Z,3.4
2022-12-23T12:54:37.671Z,3.4
2022-12-23T12:55:43.468Z,3.4
2022-12-23T12:56:50.575Z,3.4
2022-12-23T12:57:57.728Z,3.4
2022-12-23T13:00:11.837Z,3.4
2022-12-23T13:01:18.432Z,3.4
2022-12-23T13:02:25.651Z,3.4
2022-12-23T13:03:32.643Z,3.4
2022-12-23T13:04:39.745Z,3.4
2022-12-23T13:05:53.329Z,3.4
2022-12-23T13:06:53.525Z,3.4
2022-12-23T13:08:00.569Z,3.3
2022-12-23T13:09:07.618Z,3.3
2022-12-23T13:10:14.789Z,3.3
2022-12-23T13:11:26.536Z,3.3
2022-12-23T13:12:28.444Z,3.3
2022-12-23T13:13:35.602Z,3.3
2022-12-23T13:14:42.681Z,3.3
2022-12-23T13:15:49.716Z,3.3
2022-12-23T13:16:56.930Z,3.3
2022-12-23T13:18:04.096Z,3.3
2022-12-23T13:19:10.580Z,3.3
2022-12-23T13:20:17.622Z,3.3
2022-12-23T13:21:24.781Z,3.3
2022-12-23T13:22:31.956Z,3.3
2022-12-23T13:23:44.353Z,3.3
2022-12-23T13:24:45.570Z,3.3
2022-12-23T13:25:52.732Z,3.3
2022-12-23T13:26:59.731Z,3.3
2022-12-23T13:28:06.909Z,3.3
2022-12-23T13:29:13.511Z,3.3
2022-12-23T13:30:20.611Z,3.2
2022-12-23T13:31:27.806Z,3.2
2022-12-23T13:32:34.888Z,3.2
2022-12-23T13:33:41.939Z,3.1
2022-12-23T13:34:48.485Z,3.1
2022-12-23T13:36:02.939Z,3.1
2022-12-23T13:37:02.788Z,3.1
2022-12-23T13:38:10.064Z,3.1
2022-12-23T13:39:16.912Z,3.1
2022-12-23T13:40:23.464Z,3.1
2022-12-23T13:41:30.623Z,3
2022-12-23T13:42:38.095Z,3
2022-12-23T13:43:44.763Z,3
2022-12-23T13:44:51.920Z,2.9
2022-12-23T13:45:58.563Z,2.9
2022-12-23T13:47:05.681Z,2.9
2022-12-23T13:48:12.796Z,2.9
2022-12-23T13:49:19.762Z,2.9
2022-12-23T13:51:33.504Z,2.9
2022-12-23T13:52:40.700Z,2.8
2022-12-23T13:53:47.705Z,2.8
2022-12-23T13:54:54.830Z,2.8
2022-12-23T13:56:01.410Z,2.8
2022-12-23T13:57:08.628Z,2.7
2022-12-23T13:58:15.604Z,2.7
2022-12-23T13:59:22.753Z,2.7
2022-12-23T14:00:29.777Z,2.7
2022-12-23T14:01:36.530Z,2.7
2022-12-23T14:03:50.680Z,2.7
2022-12-23T14:04:57.725Z,2.7
2022-12-23T14:06:04.842Z,2.7
2022-12-23T14:07:11.449Z,2.7
2022-12-23T14:08:18.488Z,2.8
2022-12-23T14:09:25.671Z,2.7
2022-12-23T14:10:32.773Z,2.8
2022-12-23T14:11:39.301Z,2.7
2022-12-23T14:12:46.957Z,2.7
2022-12-23T14:13:53.553Z,2.7
2022-12-23T14:15:00.631Z,2.7
2022-12-23T14:16:07.828Z,2.7
2022-12-23T14:17:14.872Z,2.7
2022-12-23T14:18:21.515Z,2.6
2022-12-23T14:19:28.530Z,2.6
2022-12-23T14:20:35.681Z,2.6
2022-12-23T14:21:43.308Z,2.5
2022-12-23T14:22:49.849Z,2.6
2022-12-23T14:24:02.438Z,2.5
2022-12-23T14:25:03.535Z,2.5
2022-12-23T14:26:10.649Z,2.5
2022-12-23T14:27:17.931Z,2.5
2022-12-23T14:28:24.841Z,2.5
2022-12-23T14:29:31.464Z,2.5
2022-12-23T14:30:38.509Z,2.4
2022-12-23T14:31:45.763Z,2.4
2022-12-23T14:32:52.855Z,2.4
2022-12-23T14:33:59.851Z,2.4
2022-12-23T14:35:06.447Z,2.4
2022-12-23T14:36:13.601Z,2.4
2022-12-23T14:37:20.647Z,2.4
2022-12-23T14:38:27.726Z,2.3
2022-12-23T14:39:34.885Z,2.4
2022-12-23T14:40:41.509Z,2.3
2022-12-23T14:41:48.524Z,2.3
2022-12-23T14:42:55.720Z,2.3
2022-12-23T14:44:02.890Z,2.3
2022-12-23T14:45:09.888Z,2.3
2022-12-23T14:46:16.527Z,2.3
2022-12-23T14:47:23.651Z,2.3
2022-12-23T14:48:30.680Z,2.3
2022-12-23T14:49:40.124Z,2.3
2022-12-23T14:50:44.890Z,2.3
2022-12-23T14:51:51.526Z,2.3
2022-12-23T14:52:58.728Z,2.2
2022-12-23T14:54:05.677Z,2.2
2022-12-23T14:55:29.820Z,2.2
2022-12-23T14:56:19.890Z,2.2
2022-12-23T14:57:26.586Z,2.3
2022-12-23T14:58:33.573Z,2.3
2022-12-23T14:59:40.697Z,2.3
2022-12-23T15:00:47.756Z,2.3
2022-12-23T15:01:55.006Z,2.4
2022-12-23T15:03:01.554Z,2.4
2022-12-23T15:04:08.630Z,2.4
2022-12-23T15:05:15.739Z,2.5
2022-12-23T15:07:29.975Z,2.5
2022-12-23T15:08:36.484Z,2.5
2022-12-23T15:09:43.602Z,2.5
2022-12-23T15:10:50.705Z,2.5
2022-12-23T15:11:57.799Z,2.5
2022-12-23T15:13:04.443Z,2.6
2022-12-23T15:14:11.515Z,2.6
2022-12-23T15:15:18.570Z,2.6
2022-12-23T15:16:25.773Z,2.6
2022-12-23T15:17:32.875Z,2.6
2022-12-23T15:19:46.529Z,2.6
2022-12-23T15:20:53.608Z,2.6
2022-12-23T15:22:13.058Z,2.6
2022-12-23T15:23:07.860Z,2.6
2022-12-23T15:24:14.923Z,2.6
2022-12-23T15:25:22.078Z,2.6
2022-12-23T15:26:28.636Z,2.5
2022-12-23T15:27:35.767Z,2.5
2022-12-23T15:28:42.874Z,2.6
2022-12-23T15:29:49.941Z,2.6
2022-12-23T15:30:56.704Z,2.6
2022-12-23T15:32:03.623Z,2.6
2022-12-23T15:33:28.263Z,2.6
2022-12-23T15:34:17.589Z,2.6
2022-12-23T15:35:24.416Z,2.6
2022-12-23T15:36:31.632Z,2.7
2022-12-23T15:37:38.669Z,2.7
2022-12-23T15:38:45.779Z,2.7
2022-12-23T15:39:59.544Z,2.7
2022-12-23T15:40:59.913Z,2.7
2022-12-23T15:42:06.538Z,2.7
2022-12-23T15:43:13.723Z,2.7
2022-12-23T15:44:20.780Z,2.7
2022-12-23T15:45:27.852Z,2.7
2022-12-23T15:46:35.017Z,2.7
2022-12-23T15:47:41.637Z,2.7
2022-12-23T15:48:48.628Z,2.7
2022-12-23T15:49:55.750Z,2.7
2022-12-23T15:51:02.852Z,2.7
2022-12-23T15:52:12.332Z,2.7
2022-12-23T15:53:16.651Z,2.7
2022-12-23T15:54:23.696Z,2.7
2022-12-23T15:55:30.777Z,2.8